Time;durP1;ratioP1;P1;durP2;ratioP2;P2;SDS_P1;SDS_P2;PMS_P1;PMS_P2;Temp;Humidity;BMP_temperature;BMP_pressure;BME280_temperature;BME280_humidity;BME280_pressure;Samples;Min_cycle;Max_cycle;Signal;HPM_P1;HPM_P2
2023/08/29 00:02:13;;;;;;;1.40;1.30;;;;;;;;;;5087018;28;20216;-31
2023/08/29 00:04:40;;;;;;;2.03;1.33;;;;;;;;;;5095466;28;20224;-30
2023/08/29 00:07:07;;;;;;;2.13;1.50;;;;;;;;;;5101751;28;20204;-29
2023/08/29 00:09:35;;;;;;;1.70;1.60;;;;;;;;;;5108216;28;20204;-31
2023/08/29 00:12:03;;;;;;;1.83;1.73;;;;;;;;;;5112998;28;20220;-30
2023/08/29 00:14:30;;;;;;;1.40;1.40;;;;;;;;;;5111329;28;20585;-29
2023/08/29 00:16:57;;;;;;;1.40;1.30;;;;;;;;;;5089746;28;20387;-31
2023/08/29 00:19:26;;;;;;;1.50;1.40;;;;;;;;;;5099262;28;20204;-30
2023/08/29 00:21:53;;;;;;;3.03;1.30;;;;;;;;;;5104125;28;20225;-31
2023/08/29 00:24:21;;;;;;;2.60;1.47;;;;;;;;;;5101954;28;20447;-30
2023/08/29 00:26:48;;;;;;;1.40;1.33;;;;;;;;;;5102462;28;20189;-28
2023/08/29 00:29:15;;;;;;;1.70;1.47;;;;;;;;;;5087368;28;20208;-31
2023/08/29 00:31:43;;;;;;;2.33;1.20;;;;;;;;;;5105074;28;20265;-29
2023/08/29 00:34:10;;;;;;;1.47;1.43;;;;;;;;;;5098970;28;20614;-31
2023/08/29 00:36:38;;;;;;;1.70;1.60;;;;;;;;;;5087406;28;20224;-34
2023/08/29 00:39:05;;;;;;;1.50;1.40;;;;;;;;;;5104298;28;20200;-28
2023/08/29 00:41:32;;;;;;;1.70;1.60;;;;;;;;;;5095858;28;20587;-31
2023/08/29 00:43:59;;;;;;;1.53;1.40;;;;;;;;;;5088732;28;20207;-32
2023/08/29 00:46:27;;;;;;;1.50;1.40;;;;;;;;;;5096965;28;20222;-31
2023/08/29 00:48:55;;;;;;;0.80;0.80;;;;;;;;;;5095803;28;20200;-27
2023/08/29 00:51:23;;;;;;;2.70;1.47;;;;;;;;;;5106854;28;20228;-30
2023/08/29 00:53:51;;;;;;;1.47;1.30;;;;;;;;;;5096674;28;20200;-31
2023/08/29 00:56:18;;;;;;;5.37;1.73;;;;;;;;;;5098298;28;20283;-31
2023/08/29 00:58:45;;;;;;;1.70;1.53;;;;;;;;;;5087929;28;20211;-31
2023/08/29 01:01:14;;;;;;;1.63;1.53;;;;;;;;;;5092150;28;20704;-32
2023/08/29 01:03:42;;;;;;;2.20;1.40;;;;;;;;;;5095243;28;20689;-30
2023/08/29 01:06:09;;;;;;;1.37;1.37;;;;;;;;;;5098768;28;20197;-29
2023/08/29 01:08:36;;;;;;;1.60;1.50;;;;;;;;;;5097004;28;20203;-31
2023/08/29 01:11:09;;;;;;;1.50;1.40;;;;;;;;;;5099008;28;20242;-31
2023/08/29 01:13:41;;;;;;;1.40;1.30;;;;;;;;;;5087896;28;20204;-28
2023/08/29 01:16:10;;;;;;;1.23;1.23;;;;;;;;;;5086986;28;20236;-28
2023/08/29 01:18:38;;;;;;;4.13;1.50;;;;;;;;;;5092563;28;20196;-28
2023/08/29 01:21:13;;;;;;;1.67;1.47;;;;;;;;;;5106085;28;20215;-29
2023/08/29 01:23:41;;;;;;;1.83;1.40;;;;;;;;;;5100586;28;20200;-31
2023/08/29 01:26:12;;;;;;;1.20;1.20;;;;;;;;;;5104142;28;20228;-31
2023/08/29 01:28:40;;;;;;;2.33;1.50;;;;;;;;;;5087148;28;20212;-30
2023/08/29 01:31:07;;;;;;;1.70;1.40;;;;;;;;;;5090374;28;20235;-31
2023/08/29 01:33:35;;;;;;;2.30;1.73;;;;;;;;;;5091492;28;20294;-31
2023/08/29 01:36:03;;;;;;;3.77;1.50;;;;;;;;;;5092014;28;20203;-34
2023/08/29 01:38:30;;;;;;;4.50;1.37;;;;;;;;;;5099953;28;20210;-30
2023/08/29 01:41:00;;;;;;;3.63;1.40;;;;;;;;;;5092914;28;20201;-31
2023/08/29 01:43:28;;;;;;;1.77;1.40;;;;;;;;;;5089818;28;20307;-33
2023/08/29 01:45:56;;;;;;;2.33;1.50;;;;;;;;;;5090354;28;20201;-31
2023/08/29 01:48:23;;;;;;;1.90;1.10;;;;;;;;;;5099612;28;20208;-31
2023/08/29 01:50:50;;;;;;;2.47;1.40;;;;;;;;;;5095919;28;20227;-29
2023/08/29 01:53:17;;;;;;;1.80;1.70;;;;;;;;;;5093787;28;20204;-31
2023/08/29 01:55:46;;;;;;;1.43;1.33;;;;;;;;;;5105731;28;20776;-30
2023/08/29 01:58:14;;;;;;;2.33;1.53;;;;;;;;;;5106326;28;20203;-29
2023/08/29 02:00:42;;;;;;;2.23;1.50;;;;;;;;;;5099058;28;20223;-32
2023/08/29 02:03:11;;;;;;;1.40;1.30;;;;;;;;;;5103512;28;20218;-30
2023/08/29 02:05:39;;;;;;;1.70;1.60;;;;;;;;;;5098640;28;20200;-31
2023/08/29 02:08:08;;;;;;;1.60;1.50;;;;;;;;;;5091609;28;20197;-31
2023/08/29 02:10:35;;;;;;;2.43;1.50;;;;;;;;;;5090344;28;20207;-33
2023/08/29 02:13:02;;;;;;;1.70;1.60;;;;;;;;;;5090366;28;20271;-29
2023/08/29 02:15:29;;;;;;;1.50;1.40;;;;;;;;;;5085703;28;20216;-31
2023/08/29 02:17:58;;;;;;;3.33;1.63;;;;;;;;;;5094893;28;20734;-31
2023/08/29 02:20:25;;;;;;;2.53;1.60;;;;;;;;;;5497721;22;20230;-29
2023/08/29 02:22:52;;;;;;;1.50;1.40;;;;;;;;;;5087842;28;20215;-27
2023/08/29 02:25:19;;;;;;;1.30;1.20;;;;;;;;;;5095639;28;20208;-32
2023/08/29 02:27:46;;;;;;;1.50;1.33;;;;;;;;;;5092244;28;20204;-32
2023/08/29 02:30:14;;;;;;;2.03;1.60;;;;;;;;;;5085955;28;20204;-29
2023/08/29 02:32:41;;;;;;;1.07;1.07;;;;;;;;;;5093108;28;20225;-31
2023/08/29 02:35:11;;;;;;;1.53;1.43;;;;;;;;;;5105769;28;20204;-29
2023/08/29 02:37:38;;;;;;;2.00;1.60;;;;;;;;;;5095117;28;20208;-31
2023/08/29 02:40:07;;;;;;;1.40;1.30;;;;;;;;;;5097422;28;20200;-31
2023/08/29 02:42:34;;;;;;;1.30;1.30;;;;;;;;;;5110239;28;20219;-31
2023/08/29 02:45:01;;;;;;;1.50;1.40;;;;;;;;;;5109902;28;20213;-32
2023/08/29 02:47:28;;;;;;;1.80;1.70;;;;;;;;;;5100757;28;20208;-31
2023/08/29 02:49:55;;;;;;;2.30;1.30;;;;;;;;;;5109137;28;20203;-31
2023/08/29 02:52:24;;;;;;;1.60;1.50;;;;;;;;;;5093079;28;20231;-29
2023/08/29 02:54:51;;;;;;;1.40;1.30;;;;;;;;;;5097858;28;20207;-27
2023/08/29 02:57:18;;;;;;;2.30;1.77;;;;;;;;;;5090709;28;20205;-28
2023/08/29 02:59:45;;;;;;;2.83;1.87;;;;;;;;;;5088778;28;20211;-27
2023/08/29 03:02:12;;;;;;;1.57;1.47;;;;;;;;;;5097666;28;20208;-29
2023/08/29 03:04:39;;;;;;;2.17;1.43;;;;;;;;;;5101596;28;20220;-30
2023/08/29 03:07:07;;;;;;;2.70;1.77;;;;;;;;;;5105372;28;20203;-28
2023/08/29 03:09:35;;;;;;;1.57;1.47;;;;;;;;;;5100330;28;20287;-28
2023/08/29 03:12:03;;;;;;;1.83;1.73;;;;;;;;;;5097067;28;20252;-31
2023/08/29 03:14:30;;;;;;;2.13;1.90;;;;;;;;;;5088595;28;20200;-39
2023/08/29 03:16:58;;;;;;;2.47;1.80;;;;;;;;;;5100069;28;20218;-39
2023/08/29 03:19:25;;;;;;;1.50;1.40;;;;;;;;;;5101012;28;20260;-39
2023/08/29 03:21:52;;;;;;;1.50;1.40;;;;;;;;;;5103745;28;20234;-37
2023/08/29 03:24:19;;;;;;;1.53;1.43;;;;;;;;;;5093136;28;20204;-41
2023/08/29 03:26:47;;;;;;;1.73;1.63;;;;;;;;;;5095290;28;20201;-39
2023/08/29 03:29:15;;;;;;;1.70;1.60;;;;;;;;;;5102386;28;20199;-38
2023/08/29 03:31:43;;;;;;;2.50;1.83;;;;;;;;;;5103676;28;20219;-40
2023/08/29 03:34:10;;;;;;;1.80;1.70;;;;;;;;;;5099660;28;20527;-36
2023/08/29 03:36:38;;;;;;;1.67;1.57;;;;;;;;;;5087787;28;20218;-35
2023/08/29 03:39:06;;;;;;;3.03;1.67;;;;;;;;;;5096501;28;20212;-32
2023/08/29 03:41:33;;;;;;;1.70;1.60;;;;;;;;;;5098134;28;20218;-41
2023/08/29 03:44:01;;;;;;;7.57;2.60;;;;;;;;;;5092396;28;20207;-39
2023/08/29 03:46:28;;;;;;;2.30;2.20;;;;;;;;;;5103891;28;20208;-40
2023/08/29 03:48:55;;;;;;;1.90;1.80;;;;;;;;;;5108883;28;20197;-38
2023/08/29 03:51:22;;;;;;;2.23;1.60;;;;;;;;;;5088906;28;20216;-37
2023/08/29 03:56:58;;;;;;;5.13;2.00;;;;;;;;;;5104461;28;20239;-36
2023/08/29 03:59:38;;;;;;;1.53;1.43;;;;;;;;;;5107285;28;20211;-38
2023/08/29 04:02:19;;;;;;;2.13;1.93;;;;;;;;;;5094873;28;20227;-41
2023/08/29 04:10:57;;;;;;;2.17;1.90;;;;;;;;;;5309527;22;20239;-31
2023/08/29 04:13:24;;;;;;;3.03;2.00;;;;;;;;;;5105203;28;20220;-29
2023/08/29 04:15:52;;;;;;;2.20;2.00;;;;;;;;;;5100201;28;20352;-30
2023/08/29 04:18:20;;;;;;;2.13;2.03;;;;;;;;;;5096012;28;20264;-29
2023/08/29 04:20:47;;;;;;;1.70;1.67;;;;;;;;;;5104752;28;20222;-29
2023/08/29 04:23:15;;;;;;;2.20;2.10;;;;;;;;;;5094082;28;20754;-28
2023/08/29 04:25:42;;;;;;;1.90;1.80;;;;;;;;;;5101748;28;20236;-30
2023/08/29 04:28:09;;;;;;;2.23;1.80;;;;;;;;;;5096856;28;20207;-31
2023/08/29 04:30:36;;;;;;;2.93;2.13;;;;;;;;;;5088634;28;20209;-32
2023/08/29 04:33:06;;;;;;;2.37;2.17;;;;;;;;;;5093138;28;20221;-30
2023/08/29 04:35:34;;;;;;;3.00;2.30;;;;;;;;;;5098727;28;20429;-31
2023/08/29 04:38:01;;;;;;;1.63;1.53;;;;;;;;;;5094744;28;20208;-27
2023/08/29 04:40:28;;;;;;;2.23;2.00;;;;;;;;;;5093762;28;20668;-32
2023/08/29 04:43:04;;;;;;;3.60;2.30;;;;;;;;;;5102825;28;20220;-31
2023/08/29 04:45:32;;;;;;;2.60;2.10;;;;;;;;;;5110765;28;20192;-31
2023/08/29 04:47:59;;;;;;;2.20;2.00;;;;;;;;;;5102763;28;20450;-32
2023/08/29 04:50:30;;;;;;;3.23;2.40;;;;;;;;;;5094880;28;20217;-30
2023/08/29 04:52:57;;;;;;;3.77;2.23;;;;;;;;;;5083816;28;20236;-30
2023/08/29 04:55:25;;;;;;;4.63;2.33;;;;;;;;;;5098172;28;20211;-31
2023/08/29 04:57:54;;;;;;;2.20;2.00;;;;;;;;;;5102276;28;20234;-30
2023/08/29 05:00:22;;;;;;;3.53;2.50;;;;;;;;;;5105408;28;20224;-33
2023/08/29 05:02:50;;;;;;;2.37;1.90;;;;;;;;;;5099852;28;20219;-30
2023/08/29 05:05:18;;;;;;;4.37;2.33;;;;;;;;;;5100683;28;20206;-29
2023/08/29 05:07:47;;;;;;;3.57;1.97;;;;;;;;;;5096278;28;20212;-29
2023/08/29 05:10:14;;;;;;;2.70;2.13;;;;;;;;;;5097573;28;20260;-31
2023/08/29 05:12:41;;;;;;;3.30;2.10;;;;;;;;;;5097738;28;20215;-30
2023/08/29 05:15:11;;;;;;;3.13;2.30;;;;;;;;;;5099429;28;20257;-28
2023/08/29 05:17:39;;;;;;;5.80;2.43;;;;;;;;;;5101331;28;20448;-32
2023/08/29 05:20:09;;;;;;;2.80;2.40;;;;;;;;;;5101486;28;20200;-29
2023/08/29 05:22:40;;;;;;;2.63;2.30;;;;;;;;;;5101925;28;20307;-28
2023/08/29 05:25:09;;;;;;;1.90;1.80;;;;;;;;;;5097308;28;20235;-29
2023/08/29 05:27:37;;;;;;;3.60;2.40;;;;;;;;;;5100689;28;20857;-27
2023/08/29 05:30:05;;;;;;;4.60;2.50;;;;;;;;;;5095470;28;20196;-30
2023/08/29 05:32:32;;;;;;;3.20;2.40;;;;;;;;;;5091808;28;20228;-30
2023/08/29 05:34:59;;;;;;;2.13;1.93;;;;;;;;;;5106750;28;20393;-29
2023/08/29 05:37:27;;;;;;;3.87;2.20;;;;;;;;;;5093456;28;20208;-28
2023/08/29 05:39:54;;;;;;;3.57;2.10;;;;;;;;;;5097636;28;20200;-32
2023/08/29 05:42:23;;;;;;;2.43;2.23;;;;;;;;;;5102633;28;20208;-26
2023/08/29 05:44:50;;;;;;;3.00;2.30;;;;;;;;;;5097654;28;20279;-31
2023/08/29 05:47:18;;;;;;;1.80;1.70;;;;;;;;;;5095685;28;20203;-29
2023/08/29 05:49:45;;;;;;;2.70;2.50;;;;;;;;;;5099791;28;20279;-28
2023/08/29 05:52:18;;;;;;;2.50;2.10;;;;;;;;;;5093834;28;20224;-32
2023/08/29 05:54:45;;;;;;;2.60;2.40;;;;;;;;;;5102597;28;20206;-28
2023/08/29 05:57:12;;;;;;;6.13;3.03;;;;;;;;;;5095250;28;20188;-31
2023/08/29 05:59:41;;;;;;;2.70;2.50;;;;;;;;;;5100032;28;20504;-30
2023/08/29 06:02:08;;;;;;;2.73;2.30;;;;;;;;;;5090945;28;20230;-32
2023/08/29 06:04:35;;;;;;;3.30;3.00;;;;;;;;;;5094282;28;20292;-30
2023/08/29 06:07:03;;;;;;;3.77;2.70;;;;;;;;;;5095791;28;20200;-27
2023/08/29 06:09:30;;;;;;;2.03;1.60;;;;;;;;;;5101806;28;20204;-27
2023/08/29 06:11:58;;;;;;;3.43;2.60;;;;;;;;;;5103230;28;20220;-31
2023/08/29 06:14:26;;;;;;;4.40;2.80;;;;;;;;;;5099139;28;20275;-30
2023/08/29 06:16:54;;;;;;;2.73;2.53;;;;;;;;;;5106815;28;20207;-31
2023/08/29 06:19:21;;;;;;;2.70;2.40;;;;;;;;;;5097876;28;20200;-31
2023/08/29 06:21:48;;;;;;;2.83;2.63;;;;;;;;;;5101212;28;20228;-28
2023/08/29 06:24:15;;;;;;;3.03;2.47;;;;;;;;;;5107214;28;20547;-29
2023/08/29 06:26:43;;;;;;;2.80;2.60;;;;;;;;;;5100201;28;20215;-30
2023/08/29 06:29:10;;;;;;;2.93;2.73;;;;;;;;;;5105181;28;20234;-30
2023/08/29 06:31:37;;;;;;;3.10;2.70;;;;;;;;;;5100760;28;20241;-29
2023/08/29 06:34:06;;;;;;;3.03;2.73;;;;;;;;;;5103193;28;20231;-30
2023/08/29 06:36:33;;;;;;;3.53;2.80;;;;;;;;;;5096042;28;20210;-31
2023/08/29 06:39:04;;;;;;;2.90;2.30;;;;;;;;;;5101012;28;20210;-31
2023/08/29 06:41:31;;;;;;;2.53;2.33;;;;;;;;;;5097308;28;20219;-30
2023/08/29 06:43:59;;;;;;;4.40;3.77;;;;;;;;;;5108422;28;20199;-29
2023/08/29 06:46:26;;;;;;;3.97;3.57;;;;;;;;;;5100416;28;20212;-28
2023/08/29 06:48:53;;;;;;;3.83;3.47;;;;;;;;;;5106336;28;20504;-30
2023/08/29 06:51:21;;;;;;;3.73;3.23;;;;;;;;;;5096516;28;20303;-32
2023/08/29 06:53:49;;;;;;;3.77;2.90;;;;;;;;;;5109957;28;20216;-32
2023/08/29 06:56:16;;;;;;;3.17;2.87;;;;;;;;;;5109301;28;20197;-30
2023/08/29 06:58:43;;;;;;;4.47;3.67;;;;;;;;;;5096924;28;20207;-28
2023/08/29 07:01:10;;;;;;;4.63;3.90;;;;;;;;;;5108510;28;20207;-29
2023/08/29 07:03:37;;;;;;;4.47;4.07;;;;;;;;;;5101960;28;20200;-28
2023/08/29 07:06:04;;;;;;;5.03;4.40;;;;;;;;;;5109614;28;20196;-31
2023/08/29 07:08:33;;;;;;;3.20;3.00;;;;;;;;;;5099637;28;20659;-32
2023/08/29 07:11:00;;;;;;;4.53;4.13;;;;;;;;;;5103744;28;20290;-29
2023/08/29 07:13:27;;;;;;;5.33;4.50;;;;;;;;;;5096842;28;20216;-29
2023/08/29 07:18:58;;;;;;;6.40;4.17;;;;;;;;;;5116972;28;20175;-29
2023/08/29 07:21:26;;;;;;;4.80;4.10;;;;;;;;;;5116241;28;20263;-30
2023/08/29 07:23:55;;;;;;;2.90;2.60;;;;;;;;;;5106672;28;20711;-29
2023/08/29 07:26:22;;;;;;;6.07;4.20;;;;;;;;;;5106501;28;20250;-28
2023/08/29 07:28:49;;;;;;;5.23;4.73;;;;;;;;;;5106065;28;20259;-29
2023/08/29 07:31:17;;;;;;;5.77;4.37;;;;;;;;;;5099681;28;20310;-30
2023/08/29 07:33:45;;;;;;;4.53;4.20;;;;;;;;;;5102770;28;20580;-29
2023/08/29 07:36:12;;;;;;;5.57;5.07;;;;;;;;;;5097501;28;20931;-31
2023/08/29 07:38:41;;;;;;;6.00;4.67;;;;;;;;;;5101846;28;20219;-29
2023/08/29 07:41:10;;;;;;;7.60;5.10;;;;;;;;;;5099731;28;20197;-31
2023/08/29 07:43:37;;;;;;;5.37;4.70;;;;;;;;;;5096581;28;20196;-30
2023/08/29 07:46:04;;;;;;;5.53;5.03;;;;;;;;;;5096459;28;20204;-32
2023/08/29 07:48:31;;;;;;;5.60;4.53;;;;;;;;;;5097610;28;20200;-33
2023/08/29 07:50:58;;;;;;;6.60;5.40;;;;;;;;;;5105947;28;20311;-26
2023/08/29 07:53:25;;;;;;;5.50;4.97;;;;;;;;;;5104277;28;20230;-27
2023/08/29 07:55:53;;;;;;;6.63;5.30;;;;;;;;;;5104858;28;20265;-31
2023/08/29 07:58:23;;;;;;;6.37;5.77;;;;;;;;;;5106663;28;20444;-29
2023/08/29 08:00:51;;;;;;;6.17;5.57;;;;;;;;;;5094188;28;20192;-31
2023/08/29 08:03:18;;;;;;;6.53;5.40;;;;;;;;;;5099738;28;20200;-29
2023/08/29 08:05:45;;;;;;;5.17;4.73;;;;;;;;;;5103915;28;20224;-31
2023/08/29 08:08:12;;;;;;;7.60;5.43;;;;;;;;;;5101770;28;20226;-30
2023/08/29 08:10:41;;;;;;;5.00;4.43;;;;;;;;;;5112603;28;20300;-29
2023/08/29 08:13:08;;;;;;;6.10;5.47;;;;;;;;;;5100007;28;20574;-31
2023/08/29 08:15:35;;;;;;;6.20;5.60;;;;;;;;;;5095986;28;20239;-27
2023/08/29 08:18:04;;;;;;;5.13;4.67;;;;;;;;;;5099355;28;20211;-32
2023/08/29 08:20:31;;;;;;;5.60;5.10;;;;;;;;;;5104414;28;20196;-31
2023/08/29 08:22:58;;;;;;;4.60;4.20;;;;;;;;;;5104627;28;20222;-32
2023/08/29 08:25:26;;;;;;;5.40;4.90;;;;;;;;;;5101554;28;20197;-31
2023/08/29 08:27:53;;;;;;;6.50;5.17;;;;;;;;;;5097079;28;20671;-32
2023/08/29 08:30:20;;;;;;;5.93;5.33;;;;;;;;;;5106120;28;20202;-30
2023/08/29 08:32:47;;;;;;;6.67;5.30;;;;;;;;;;5100144;28;20226;-30
2023/08/29 08:35:15;;;;;;;5.90;4.70;;;;;;;;;;5100846;28;20210;-27
2023/08/29 08:37:43;;;;;;;6.80;4.80;;;;;;;;;;5096829;28;20307;-31
2023/08/29 08:40:11;;;;;;;5.03;4.53;;;;;;;;;;5104428;28;20222;-29
2023/08/29 08:42:39;;;;;;;8.17;5.43;;;;;;;;;;5098768;28;20336;-32
2023/08/29 08:45:09;;;;;;;4.23;3.90;;;;;;;;;;5100923;28;20565;-27
2023/08/29 08:47:36;;;;;;;7.93;4.33;;;;;;;;;;5096233;28;20205;-32
2023/08/29 08:50:03;;;;;;;3.87;3.47;;;;;;;;;;5109842;28;20715;-31
2023/08/29 08:52:32;;;;;;;6.47;4.10;;;;;;;;;;5092682;28;20228;-27
2023/08/29 08:54:59;;;;;;;4.57;3.90;;;;;;;;;;5097096;28;20227;-32
2023/08/29 08:57:27;;;;;;;6.87;4.13;;;;;;;;;;5099171;28;20229;-28
2023/08/29 08:59:54;;;;;;;3.93;3.27;;;;;;;;;;5101683;28;20203;-27
2023/08/29 09:02:22;;;;;;;4.40;4.00;;;;;;;;;;5102192;28;20234;-27
2023/08/29 09:04:49;;;;;;;5.77;4.17;;;;;;;;;;5107033;28;20200;-30
2023/08/29 09:07:16;;;;;;;4.80;3.80;;;;;;;;;;5095453;28;20253;-29
2023/08/29 09:09:45;;;;;;;6.40;5.60;;;;;;;;;;5098611;28;20204;-29
2023/08/29 09:12:12;;;;;;;8.53;5.37;;;;;;;;;;5101154;28;20224;-33
2023/08/29 09:14:42;;;;;;;5.27;4.77;;;;;;;;;;5098392;28;20228;-31
2023/08/29 09:17:10;;;;;;;6.03;5.30;;;;;;;;;;5101201;28;20395;-28
2023/08/29 09:19:38;;;;;;;7.13;5.37;;;;;;;;;;5098828;28;20328;-31
2023/08/29 09:22:05;;;;;;;6.00;5.40;;;;;;;;;;5095092;28;20216;-30
2023/08/29 09:24:39;;;;;;;4.37;3.90;;;;;;;;;;5099457;28;20199;-30
2023/08/29 09:27:09;;;;;;;8.20;5.43;;;;;;;;;;5100076;28;20225;-29
2023/08/29 09:29:36;;;;;;;9.37;5.03;;;;;;;;;;5104642;28;20196;-27
2023/08/29 09:32:13;;;;;;;5.83;4.83;;;;;;;;;;5102770;28;20647;-28
2023/08/29 09:34:41;;;;;;;5.17;4.63;;;;;;;;;;5101497;28;20857;-30
2023/08/29 09:37:08;;;;;;;5.60;5.10;;;;;;;;;;5099021;28;20266;-29
2023/08/29 09:39:36;;;;;;;4.70;4.30;;;;;;;;;;5099318;28;20701;-26
2023/08/29 09:42:04;;;;;;;7.50;5.20;;;;;;;;;;5112691;28;20235;-29
2023/08/29 09:44:36;;;;;;;5.30;4.80;;;;;;;;;;5113975;28;20202;-27
2023/08/29 09:47:04;;;;;;;3.57;3.27;;;;;;;;;;5108034;28;20200;-32
2023/08/29 09:49:33;;;;;;;3.50;3.20;;;;;;;;;;5105365;28;20192;-29
2023/08/29 09:52:02;;;;;;;4.63;3.83;;;;;;;;;;5101724;28;20220;-31
2023/08/29 09:54:31;;;;;;;3.30;3.03;;;;;;;;;;5104720;28;20522;-32
2023/08/29 09:57:01;;;;;;;3.87;3.57;;;;;;;;;;5094244;28;20258;-26
2023/08/29 09:59:29;;;;;;;4.10;3.77;;;;;;;;;;5101739;28;20203;-32
2023/08/29 10:01:58;;;;;;;5.87;4.70;;;;;;;;;;5100195;28;20740;-29
2023/08/29 10:04:26;;;;;;;7.20;5.17;;;;;;;;;;5094700;28;20230;-30
2023/08/29 10:06:55;;;;;;;3.87;3.57;;;;;;;;;;5095248;28;20201;-30
2023/08/29 10:09:25;;;;;;;4.73;3.47;;;;;;;;;;5099030;28;20211;-33
2023/08/29 10:11:53;;;;;;;7.77;5.80;;;;;;;;;;5096716;28;20254;-27
2023/08/29 10:14:21;;;;;;;4.43;3.83;;;;;;;;;;5103888;28;20219;-28
2023/08/29 10:16:48;;;;;;;5.90;5.13;;;;;;;;;;5098338;28;20504;-31
2023/08/29 10:19:17;;;;;;;6.00;5.50;;;;;;;;;;5097747;28;20284;-30
2023/08/29 10:21:45;;;;;;;4.67;3.60;;;;;;;;;;5094344;28;20227;-26
2023/08/29 10:24:13;;;;;;;5.07;4.57;;;;;;;;;;5098955;28;20207;-31
2023/08/29 10:26:40;;;;;;;5.47;4.97;;;;;;;;;;5105025;28;20206;-29
2023/08/29 10:29:08;;;;;;;5.33;4.67;;;;;;;;;;5113354;28;20687;-31
2023/08/29 10:31:36;;;;;;;4.87;4.40;;;;;;;;;;5109057;28;20221;-31
2023/08/29 10:34:04;;;;;;;4.80;4.27;;;;;;;;;;5105973;28;20217;-32
2023/08/29 10:36:32;;;;;;;3.53;3.23;;;;;;;;;;5113153;28;20207;-32
2023/08/29 10:39:00;;;;;;;5.27;4.00;;;;;;;;;;5103308;28;20275;-31
2023/08/29 10:41:44;;;;;;;4.50;4.07;;;;;;;;;;5099341;28;20220;-28
2023/08/29 10:44:30;;;;;;;4.87;4.47;;;;;;;;;;5105015;28;20195;-30
2023/08/29 10:47:23;;;;;;;4.60;4.00;;;;;;;;;;5106732;28;20415;-31
2023/08/29 10:49:50;;;;;;;5.13;4.37;;;;;;;;;;5095209;28;20196;-30
2023/08/29 10:52:21;;;;;;;4.03;3.30;;;;;;;;;;5095214;28;20224;-28
2023/08/29 10:54:48;;;;;;;4.13;3.73;;;;;;;;;;5101879;28;20581;-29
2023/08/29 10:57:28;;;;;;;6.23;4.27;;;;;;;;;;5104685;28;20195;-29
2023/08/29 10:59:55;;;;;;;4.57;4.13;;;;;;;;;;5097462;28;20196;-28
2023/08/29 11:02:23;;;;;;;3.93;3.60;;;;;;;;;;5101941;28;20249;-29
2023/08/29 11:04:52;;;;;;;4.77;4.40;;;;;;;;;;5098512;28;20211;-31
2023/08/29 11:07:26;;;;;;;5.27;4.30;;;;;;;;;;5097974;28;20200;-29
2023/08/29 11:10:21;;;;;;;3.23;2.93;;;;;;;;;;5098001;28;20203;-27
2023/08/29 11:13:06;;;;;;;3.87;3.57;;;;;;;;;;5045402;28;20289;-30
2023/08/29 11:15:51;;;;;;;4.47;4.10;;;;;;;;;;5100249;28;20231;-29
2023/08/29 11:18:30;;;;;;;3.60;3.30;;;;;;;;;;5109897;28;20199;-29
2023/08/29 11:21:00;;;;;;;3.30;3.00;;;;;;;;;;5110487;28;20204;-28
2023/08/29 11:23:29;;;;;;;3.40;3.10;;;;;;;;;;5102721;28;20206;-31
2023/08/29 11:25:57;;;;;;;4.97;3.43;;;;;;;;;;5094921;28;20651;-29
2023/08/29 11:28:24;;;;;;;3.97;3.63;;;;;;;;;;5095492;28;20196;-32
2023/08/29 11:31:00;;;;;;;3.60;3.30;;;;;;;;;;5110402;28;20208;-31
2023/08/29 11:33:32;;;;;;;4.00;3.40;;;;;;;;;;5108067;28;20666;-33
2023/08/29 11:35:59;;;;;;;5.53;3.53;;;;;;;;;;5095832;28;20220;-31
2023/08/29 11:38:29;;;;;;;2.87;2.73;;;;;;;;;;5097504;28;20238;-29
2023/08/29 11:40:56;;;;;;;3.77;3.47;;;;;;;;;;5096291;28;20251;-27
2023/08/29 11:43:24;;;;;;;3.93;3.53;;;;;;;;;;5099971;28;20201;-28
2023/08/29 11:45:53;;;;;;;3.53;3.23;;;;;;;;;;5112223;28;20227;-31
2023/08/29 11:48:29;;;;;;;5.83;3.37;;;;;;;;;;5101513;28;20257;-31
2023/08/29 11:50:56;;;;;;;3.97;3.67;;;;;;;;;;5102089;28;20192;-30
2023/08/29 11:53:30;;;;;;;2.53;2.40;;;;;;;;;;5097872;28;20208;-27
2023/08/29 11:56:00;;;;;;;3.47;3.27;;;;;;;;;;5100129;28;20225;-31
2023/08/29 11:58:28;;;;;;;2.97;2.77;;;;;;;;;;5104503;28;20192;-31
2023/08/29 12:00:56;;;;;;;3.53;3.23;;;;;;;;;;5110217;28;20732;-32
2023/08/29 12:03:25;;;;;;;3.17;2.90;;;;;;;;;;5100859;28;20208;-27
2023/08/29 12:05:53;;;;;;;3.07;2.77;;;;;;;;;;5101569;28;20201;-29
2023/08/29 12:08:35;;;;;;;3.73;3.30;;;;;;;;;;5097244;28;20196;-28
2023/08/29 12:11:06;;;;;;;3.73;3.00;;;;;;;;;;5097945;28;20216;-27
2023/08/29 12:13:33;;;;;;;3.13;2.83;;;;;;;;;;5104935;28;20250;-31
2023/08/29 12:16:02;;;;;;;3.30;3.00;;;;;;;;;;5107137;28;20226;-31
2023/08/29 12:18:29;;;;;;;3.77;3.43;;;;;;;;;;5098487;28;20196;-29
2023/08/29 12:21:10;;;;;;;3.70;3.40;;;;;;;;;;5098677;28;20193;-30
2023/08/29 12:23:37;;;;;;;3.13;2.90;;;;;;;;;;5097504;28;20207;-29
2023/08/29 12:26:06;;;;;;;2.23;2.13;;;;;;;;;;5099223;28;20284;-27
2023/08/29 12:28:33;;;;;;;2.70;2.43;;;;;;;;;;5100384;28;20195;-29
2023/08/29 12:31:01;;;;;;;3.07;2.27;;;;;;;;;;5106227;28;20199;-29
2023/08/29 12:33:28;;;;;;;2.30;2.00;;;;;;;;;;5114187;28;20215;-31
2023/08/29 12:35:55;;;;;;;3.57;2.23;;;;;;;;;;5102007;28;20435;-32
2023/08/29 12:38:23;;;;;;;2.37;1.90;;;;;;;;;;5099753;28;20227;-28
2023/08/29 12:40:50;;;;;;;2.60;2.30;;;;;;;;;;5100297;28;20287;-32
2023/08/29 12:43:19;;;;;;;2.37;2.23;;;;;;;;;;5109550;28;20196;-29
2023/08/29 12:45:59;;;;;;;2.20;2.10;;;;;;;;;;5095238;28;20208;-30
2023/08/29 12:48:26;;;;;;;2.57;1.80;;;;;;;;;;5099317;28;20654;-32
2023/08/29 12:50:54;;;;;;;1.77;1.50;;;;;;;;;;5104730;28;20200;-31
2023/08/29 12:53:21;;;;;;;2.00;1.90;;;;;;;;;;5100317;28;20215;-33
2023/08/29 12:55:50;;;;;;;2.40;2.00;;;;;;;;;;5104425;28;20247;-32
2023/08/29 12:58:18;;;;;;;1.97;1.80;;;;;;;;;;5100616;28;20204;-30
2023/08/29 13:00:46;;;;;;;1.90;1.80;;;;;;;;;;5113497;28;20207;-31
2023/08/29 13:03:13;;;;;;;1.70;1.60;;;;;;;;;;5099019;28;20219;-32
2023/08/29 13:05:40;;;;;;;2.50;1.90;;;;;;;;;;5104682;28;20200;-31
2023/08/29 13:08:08;;;;;;;1.80;1.70;;;;;;;;;;5097779;28;20204;-31
2023/08/29 13:10:35;;;;;;;1.70;1.60;;;;;;;;;;5094073;28;20221;-32
2023/08/29 13:13:02;;;;;;;2.47;1.70;;;;;;;;;;5113113;28;20238;-31
2023/08/29 13:15:30;;;;;;;1.70;1.60;;;;;;;;;;5102214;28;20223;-32
2023/08/29 13:17:58;;;;;;;2.00;1.43;;;;;;;;;;5099439;28;20207;-28
2023/08/29 13:20:27;;;;;;;1.40;1.40;;;;;;;;;;5102018;28;20200;-33
2023/08/29 13:22:55;;;;;;;3.43;2.73;;;;;;;;;;5101144;28;20303;-27
2023/08/29 13:25:22;;;;;;;2.63;1.73;;;;;;;;;;5103401;28;20283;-32
2023/08/29 13:27:49;;;;;;;1.40;1.30;;;;;;;;;;5112712;28;20196;-28
2023/08/29 13:30:17;;;;;;;1.10;1.10;;;;;;;;;;5101454;28;20197;-29
2023/08/29 13:32:45;;;;;;;2.40;1.70;;;;;;;;;;5096508;28;20227;-29
2023/08/29 13:35:13;;;;;;;1.30;1.20;;;;;;;;;;5097692;28;20243;-27
2023/08/29 13:37:41;;;;;;;1.67;1.57;;;;;;;;;;5096585;28;20224;-31
2023/08/29 13:40:09;;;;;;;1.43;1.43;;;;;;;;;;5103656;28;20204;-27
2023/08/29 13:42:37;;;;;;;1.90;1.80;;;;;;;;;;5093553;28;20274;-33
2023/08/29 13:45:09;;;;;;;2.40;2.00;;;;;;;;;;5099143;28;20205;-29
2023/08/29 13:47:36;;;;;;;3.67;1.70;;;;;;;;;;5096456;28;20205;-27
2023/08/29 13:50:05;;;;;;;2.30;2.07;;;;;;;;;;5094693;28;20211;-31
2023/08/29 13:52:32;;;;;;;3.20;2.90;;;;;;;;;;5103782;28;20224;-31
2023/08/29 13:55:01;;;;;;;3.37;3.07;;;;;;;;;;5098440;28;20239;-29
2023/08/29 13:57:33;;;;;;;3.23;2.93;;;;;;;;;;5099607;28;20205;-28
2023/08/29 14:00:00;;;;;;;3.27;3.07;;;;;;;;;;5107249;28;20876;-30
2023/08/29 14:02:27;;;;;;;3.17;2.93;;;;;;;;;;5102137;28;20235;-27
2023/08/29 14:04:54;;;;;;;3.77;3.50;;;;;;;;;;5103669;28;20228;-27
2023/08/29 14:07:22;;;;;;;3.40;3.10;;;;;;;;;;5102147;28;20196;-30
2023/08/29 14:09:50;;;;;;;3.20;3.00;;;;;;;;;;5107036;28;20228;-28
2023/08/29 14:12:17;;;;;;;3.50;3.20;;;;;;;;;;5101052;28;20228;-30
2023/08/29 14:14:44;;;;;;;3.10;2.90;;;;;;;;;;5097968;28;20291;-29
2023/08/29 14:17:11;;;;;;;2.93;2.73;;;;;;;;;;5109672;28;20291;-30
2023/08/29 14:19:38;;;;;;;2.90;2.60;;;;;;;;;;5112806;28;20214;-29
2023/08/29 14:22:05;;;;;;;3.67;2.67;;;;;;;;;;5107049;28;20234;-28
2023/08/29 14:24:34;;;;;;;2.90;2.60;;;;;;;;;;5095457;28;20304;-28
2023/08/29 14:27:01;;;;;;;4.00;2.53;;;;;;;;;;5095042;28;20660;-29
2023/08/29 14:29:30;;;;;;;2.50;2.30;;;;;;;;;;5112561;28;20223;-30
2023/08/29 14:31:57;;;;;;;2.50;2.30;;;;;;;;;;5101927;28;20235;-30
2023/08/29 14:34:24;;;;;;;2.00;1.90;;;;;;;;;;5096643;28;20205;-27
2023/08/29 14:36:51;;;;;;;1.93;1.77;;;;;;;;;;5098420;28;20233;-26
2023/08/29 14:39:18;;;;;;;1.20;1.20;;;;;;;;;;5108981;28;20291;-29
2023/08/29 14:41:47;;;;;;;2.10;1.90;;;;;;;;;;5108445;28;20228;-32
2023/08/29 14:44:14;;;;;;;1.73;1.63;;;;;;;;;;5103478;28;20210;-32
2023/08/29 14:46:41;;;;;;;1.80;1.70;;;;;;;;;;5111504;28;20285;-29
2023/08/29 14:49:09;;;;;;;1.70;1.60;;;;;;;;;;5111079;28;20249;-29
2023/08/29 14:51:36;;;;;;;2.40;1.47;;;;;;;;;;5107119;28;20230;-31
2023/08/29 14:54:03;;;;;;;1.83;1.70;;;;;;;;;;5101966;28;20201;-30
2023/08/29 14:56:30;;;;;;;1.90;1.80;;;;;;;;;;5103515;28;20260;-33
2023/08/29 14:58:59;;;;;;;2.00;1.83;;;;;;;;;;5101234;28;20222;-30
2023/08/29 15:01:31;;;;;;;2.00;1.83;;;;;;;;;;5107144;28;20596;-29
2023/08/29 15:04:00;;;;;;;1.97;1.80;;;;;;;;;;5109494;28;20192;-29